createdAt,value
2018-05-31T00:00:09.791Z,1013.15
2018-05-31T00:01:09.560Z,1013.14
2018-05-31T00:02:09.968Z,1013.12
2018-05-31T00:03:10.020Z,1013.12
2018-05-31T00:04:10.028Z,1013.17
2018-05-31T00:05:10.220Z,1013.2
2018-05-31T00:06:10.379Z,1013.24
2018-05-31T00:07:10.725Z,1013.26
2018-05-31T00:08:10.757Z,1013.3
2018-05-31T00:09:11.167Z,1013.32
2018-05-31T00:10:11.230Z,1013.28
2018-05-31T00:11:11.225Z,1013.32
2018-05-31T00:12:11.379Z,1013.27
2018-05-31T00:13:11.407Z,1013.22
2018-05-31T00:14:11.439Z,1013.27
2018-05-31T00:15:11.857Z,1013.19
2018-05-31T00:16:11.905Z,1013.24
2018-05-31T00:17:12.127Z,1013.24
2018-05-31T00:18:12.580Z,1013.26
2018-05-31T00:19:12.612Z,1013.2
2018-05-31T00:20:12.986Z,1013.18
2018-05-31T00:21:13.548Z,1013.2
2018-05-31T00:22:13.504Z,1013.18
2018-05-31T00:23:13.559Z,1013.12
2018-05-31T00:24:13.739Z,1013.12
2018-05-31T00:25:13.845Z,1013.13
2018-05-31T00:26:13.799Z,1013.16
2018-05-31T00:27:13.829Z,1013.09
2018-05-31T00:28:14.015Z,1013.12
2018-05-31T00:29:14.273Z,1013.11
2018-05-31T00:30:14.305Z,1013.08
2018-05-31T00:31:14.328Z,1013.1
2018-05-31T00:32:14.373Z,1013.1
2018-05-31T00:33:14.840Z,1013.07
2018-05-31T00:34:14.831Z,1013.09
2018-05-31T00:35:15.029Z,1013.04
2018-05-31T00:36:15.502Z,1013.04
2018-05-31T00:37:15.505Z,1012.99
2018-05-31T00:38:15.967Z,1012.95
2018-05-31T00:39:16.232Z,1013.03
2018-05-31T00:40:16.265Z,1012.94
2018-05-31T00:41:16.300Z,1012.87
2018-05-31T00:42:16.338Z,1012.89
2018-05-31T00:43:16.560Z,1012.89
2018-05-31T00:44:16.537Z,1012.91
2018-05-31T00:45:16.986Z,1012.86
2018-05-31T00:46:17.378Z,1012.86
2018-05-31T00:47:17.424Z,1012.85
2018-05-31T00:48:17.617Z,1012.86
2018-05-31T00:49:17.713Z,1012.83
2018-05-31T00:50:17.691Z,1012.85
2018-05-31T00:51:17.724Z,1012.83
2018-05-31T00:52:17.763Z,1012.89
2018-05-31T00:53:17.923Z,1012.89
2018-05-31T00:54:18.538Z,1012.9
2018-05-31T00:55:18.918Z,1012.9
2018-05-31T00:56:18.955Z,1012.89
2018-05-31T00:57:18.989Z,1012.86
2018-05-31T00:58:19.634Z,1012.87
2018-05-31T00:59:19.879Z,1012.85
2018-05-31T01:00:19.848Z,1012.87
2018-05-31T01:01:19.888Z,1012.85
2018-05-31T01:02:20.089Z,1012.9
2018-05-31T01:03:20.274Z,1012.92
2018-05-31T01:04:20.302Z,1012.87
2018-05-31T01:05:20.355Z,1012.89
2018-05-31T01:06:20.388Z,1012.83
2018-05-31T01:07:20.404Z,1012.78
2018-05-31T01:08:20.579Z,1012.8
2018-05-31T01:09:20.613Z,1012.79
2018-05-31T01:10:20.649Z,1012.79
2018-05-31T01:11:21.094Z,1012.78
2018-05-31T01:12:21.269Z,1012.83
2018-05-31T01:13:21.562Z,1012.82
2018-05-31T01:14:21.586Z,1012.83
2018-05-31T01:15:21.636Z,1012.8
2018-05-31T01:16:22.080Z,1012.77
2018-05-31T01:17:22.111Z,1012.79
2018-05-31T01:18:22.148Z,1012.77
2018-05-31T01:19:22.184Z,1012.76
2018-05-31T01:20:22.220Z,1012.74
2018-05-31T01:21:22.405Z,1012.74
2018-05-31T01:22:22.850Z,1012.76
2018-05-31T01:23:23.055Z,1012.75
2018-05-31T01:24:23.074Z,1012.72
2018-05-31T01:25:23.515Z,1012.7
2018-05-31T01:26:23.545Z,1012.67
2018-05-31T01:27:23.576Z,1012.69
2018-05-31T01:28:23.613Z,1012.7
2018-05-31T01:29:23.650Z,1012.66
2018-05-31T01:30:23.685Z,1012.65
2018-05-31T01:31:23.715Z,1012.64
2018-05-31T01:32:23.776Z,1012.62
2018-05-31T01:33:23.790Z,1012.61
2018-05-31T01:34:23.958Z,1012.56
2018-05-31T01:35:24.431Z,1012.64
2018-05-31T01:36:24.650Z,1012.6
2018-05-31T01:37:24.758Z,1012.57
2018-05-31T01:38:24.797Z,1012.59
2018-05-31T01:39:24.757Z,1012.59
2018-05-31T01:40:24.794Z,1012.58
2018-05-31T01:41:24.811Z,1012.57
2018-05-31T01:42:25.083Z,1012.58
2018-05-31T01:43:25.135Z,1012.61
2018-05-31T01:44:25.204Z,1012.59
2018-05-31T01:45:25.174Z,1012.64
2018-05-31T01:46:25.397Z,1012.55
2018-05-31T01:47:25.453Z,1012.59
2018-05-31T01:48:25.676Z,1012.57
2018-05-31T01:49:25.676Z,1012.64
2018-05-31T01:50:25.920Z,1012.61
2018-05-31T01:51:26.160Z,1012.64
2018-05-31T01:52:26.174Z,1012.65
2018-05-31T01:53:26.537Z,1012.62
2018-05-31T01:54:27.527Z,1012.6
2018-05-31T01:55:27.374Z,1012.58
2018-05-31T01:56:27.392Z,1012.57
2018-05-31T01:57:27.421Z,1012.57
2018-05-31T01:58:27.462Z,1012.56
2018-05-31T01:59:27.486Z,1012.6
2018-05-31T02:00:27.530Z,1012.62
2018-05-31T02:01:27.811Z,1012.64
2018-05-31T02:02:27.844Z,1012.65
2018-05-31T02:03:28.023Z,1012.61
2018-05-31T02:04:28.082Z,1012.64
2018-05-31T02:05:28.085Z,1012.69
2018-05-31T02:06:28.144Z,1012.68
2018-05-31T02:07:28.179Z,1012.66
2018-05-31T02:08:28.641Z,1012.64
2018-05-31T02:09:28.663Z,1012.68
2018-05-31T02:10:28.718Z,1012.63
2018-05-31T02:11:28.732Z,1012.62
2018-05-31T02:12:29.037Z,1012.63
2018-05-31T02:13:29.088Z,1012.64
2018-05-31T02:14:29.272Z,1012.68
2018-05-31T02:15:29.152Z,1012.63
2018-05-31T02:16:29.182Z,1012.64
2018-05-31T02:17:29.449Z,1012.73
2018-05-31T02:18:29.540Z,1012.65
2018-05-31T02:19:29.824Z,1012.66
2018-05-31T02:20:29.963Z,1012.69
2018-05-31T02:21:30.245Z,1012.64
2018-05-31T02:22:30.370Z,1012.71
2018-05-31T02:23:30.210Z,1012.66
2018-05-31T02:24:30.088Z,1012.66
2018-05-31T02:25:30.324Z,1012.69
2018-05-31T02:26:30.164Z,1012.69
2018-05-31T02:27:30.542Z,1012.71
2018-05-31T02:28:30.460Z,1012.74
2018-05-31T02:29:30.194Z,1012.74
2018-05-31T02:30:30.289Z,1012.78
2018-05-31T02:31:30.372Z,1012.72
2018-05-31T02:32:30.393Z,1012.76
2018-05-31T02:33:30.426Z,1012.76
2018-05-31T02:34:30.468Z,1012.76
2018-05-31T02:35:30.551Z,1012.75
2018-05-31T02:36:30.502Z,1012.74
2018-05-31T02:37:30.538Z,1012.72
2018-05-31T02:38:30.583Z,1012.69
2018-05-31T02:39:30.620Z,1012.73
2018-05-31T02:40:31.336Z,1012.68
2018-05-31T02:41:31.279Z,1012.67
2018-05-31T02:42:31.311Z,1012.65
2018-05-31T02:43:31.380Z,1012.68
2018-05-31T02:44:31.400Z,1012.67
2018-05-31T02:45:31.417Z,1012.69
2018-05-31T02:46:31.458Z,1012.7
2018-05-31T02:47:31.490Z,1012.7
2018-05-31T02:48:31.526Z,1012.65
2018-05-31T02:49:31.784Z,1012.7
2018-05-31T02:50:31.835Z,1012.67
2018-05-31T02:51:31.852Z,1012.69
2018-05-31T02:52:31.891Z,1012.68
2018-05-31T02:53:31.926Z,1012.7
2018-05-31T02:54:31.962Z,1012.68
2018-05-31T02:55:32.010Z,1012.66
2018-05-31T02:56:32.483Z,1012.68
2018-05-31T02:57:32.519Z,1012.61
2018-05-31T02:58:32.556Z,1012.64
2018-05-31T02:59:32.592Z,1012.66
2018-05-31T03:00:32.618Z,1012.65
2018-05-31T03:01:32.662Z,1012.68
2018-05-31T03:02:32.691Z,1012.65
2018-05-31T03:03:32.889Z,1012.67
2018-05-31T03:04:32.920Z,1012.71
2018-05-31T03:05:33.101Z,1012.69
2018-05-31T03:06:33.133Z,1012.65
2018-05-31T03:07:33.206Z,1012.66
2018-05-31T03:08:33.204Z,1012.65
2018-05-31T03:09:33.238Z,1012.62
2018-05-31T03:10:33.278Z,1012.67
2018-05-31T03:11:33.315Z,1012.65
2018-05-31T03:12:33.348Z,1012.6
2018-05-31T03:13:33.398Z,1012.58
2018-05-31T03:14:33.422Z,1012.58
2018-05-31T03:15:33.610Z,1012.57
2018-05-31T03:16:33.649Z,1012.54
2018-05-31T03:17:33.698Z,1012.59
2018-05-31T03:18:33.726Z,1012.57
2018-05-31T03:19:33.761Z,1012.56
2018-05-31T03:20:33.945Z,1012.59
2018-05-31T03:21:34.398Z,1012.57
2018-05-31T03:22:34.564Z,1012.59
2018-05-31T03:23:35.032Z,1012.59
2018-05-31T03:24:35.054Z,1012.62
2018-05-31T03:25:35.092Z,1012.64
2018-05-31T03:26:35.121Z,1012.63
2018-05-31T03:27:35.158Z,1012.66
2018-05-31T03:28:35.206Z,1012.68
2018-05-31T03:29:35.399Z,1012.65
2018-05-31T03:30:35.465Z,1012.7
2018-05-31T03:31:35.471Z,1012.7
2018-05-31T03:32:35.509Z,1012.71
2018-05-31T03:33:35.545Z,1012.72
2018-05-31T03:34:36.041Z,1012.76
2018-05-31T03:35:36.034Z,1012.78
2018-05-31T03:36:36.070Z,1012.78
2018-05-31T03:37:36.118Z,1012.82
2018-05-31T03:38:36.304Z,1012.77
2018-05-31T03:39:36.341Z,1012.73
2018-05-31T03:40:36.524Z,1012.7
2018-05-31T03:41:36.558Z,1012.73
2018-05-31T03:42:36.813Z,1012.67
2018-05-31T03:43:36.809Z,1012.63
2018-05-31T03:44:36.820Z,1012.67
2018-05-31T03:45:36.858Z,1012.64
2018-05-31T03:46:36.911Z,1012.67
2018-05-31T03:47:37.379Z,1012.71
2018-05-31T03:48:37.445Z,1012.67
2018-05-31T03:49:37.629Z,1012.67
2018-05-31T03:50:37.813Z,1012.67
2018-05-31T03:51:37.958Z,1012.7
2018-05-31T03:52:37.996Z,1012.65
2018-05-31T03:53:38.032Z,1012.74
2018-05-31T03:54:38.076Z,1012.75
2018-05-31T03:55:38.105Z,1012.73
2018-05-31T03:56:38.150Z,1012.68
2018-05-31T03:57:38.178Z,1012.7
2018-05-31T03:58:38.616Z,1012.71
2018-05-31T03:59:38.656Z,1012.74
2018-05-31T04:00:39.061Z,1012.73
2018-05-31T04:01:39.122Z,1012.73
2018-05-31T04:02:39.136Z,1012.78
2018-05-31T04:03:39.353Z,1012.8
2018-05-31T04:04:39.420Z,1012.83
2018-05-31T04:05:39.431Z,1012.83
2018-05-31T04:06:39.467Z,1012.83
2018-05-31T04:07:39.492Z,1012.79
2018-05-31T04:08:39.794Z,1012.8
2018-05-31T04:09:39.844Z,1012.83
2018-05-31T04:10:39.867Z,1012.82
2018-05-31T04:11:39.904Z,1012.83
2018-05-31T04:12:39.998Z,1012.85
2018-05-31T04:13:39.965Z,1012.87
2018-05-31T04:14:40.184Z,1012.88
2018-05-31T04:15:40.372Z,1012.86
2018-05-31T04:16:40.826Z,1012.9
2018-05-31T04:17:40.996Z,1012.97
2018-05-31T04:18:41.323Z,1013.04
2018-05-31T04:19:41.345Z,1013.1
2018-05-31T04:20:41.541Z,1013.06
2018-05-31T04:21:42.563Z,1013.05
2018-05-31T04:22:42.603Z,1013.04
2018-05-31T04:23:42.633Z,1013.03
2018-05-31T04:24:42.852Z,1012.99
2018-05-31T04:25:42.720Z,1012.95
2018-05-31T04:26:43.091Z,1012.9
2018-05-31T04:27:43.051Z,1012.94
2018-05-31T04:28:43.096Z,1012.91
2018-05-31T04:29:43.578Z,1012.9
2018-05-31T04:30:43.609Z,1012.89
2018-05-31T04:31:43.639Z,1012.88
2018-05-31T04:32:43.678Z,1012.86
2018-05-31T04:33:43.762Z,1012.85
2018-05-31T04:34:43.750Z,1012.8
2018-05-31T04:35:43.790Z,1012.82
2018-05-31T04:36:44.008Z,1012.85
2018-05-31T04:37:44.016Z,1012.84
2018-05-31T04:38:44.069Z,1012.75
2018-05-31T04:39:44.276Z,1012.78
2018-05-31T04:40:44.309Z,1012.8
2018-05-31T04:41:44.348Z,1012.84
2018-05-31T04:42:44.380Z,1012.79
2018-05-31T04:43:44.417Z,1012.78
2018-05-31T04:44:44.454Z,1012.84
2018-05-31T04:45:44.894Z,1012.82
2018-05-31T04:46:44.905Z,1012.83
2018-05-31T04:47:45.412Z,1012.8
2018-05-31T04:48:45.744Z,1012.84
2018-05-31T04:49:45.477Z,1012.81
2018-05-31T04:50:45.499Z,1012.82
2018-05-31T04:51:45.587Z,1012.82
2018-05-31T04:52:45.879Z,1012.87
2018-05-31T04:53:45.633Z,1012.84
2018-05-31T04:54:45.990Z,1012.9
2018-05-31T04:55:45.696Z,1012.86
2018-05-31T04:56:45.823Z,1012.91
2018-05-31T04:57:45.775Z,1012.89
2018-05-31T04:58:45.804Z,1012.89
2018-05-31T04:59:45.827Z,1012.89
2018-05-31T05:00:45.875Z,1012.88
2018-05-31T05:01:46.297Z,1012.92
2018-05-31T05:02:46.727Z,1012.89
2018-05-31T05:03:46.368Z,1012.91
2018-05-31T05:04:46.713Z,1012.94
2018-05-31T05:05:46.439Z,1012.89
2018-05-31T05:06:46.706Z,1012.96
2018-05-31T05:07:46.515Z,1012.93
2018-05-31T05:08:46.548Z,1012.94
2018-05-31T05:09:46.581Z,1012.95
2018-05-31T05:10:46.618Z,1012.92
2018-05-31T05:11:46.653Z,1012.94
2018-05-31T05:12:46.694Z,1012.97
2018-05-31T05:13:47.145Z,1012.96
2018-05-31T05:14:47.174Z,1012.92
2018-05-31T05:15:47.863Z,1012.95
2018-05-31T05:16:48.312Z,1012.94
2018-05-31T05:17:48.345Z,1012.92
2018-05-31T05:18:48.386Z,1012.89
2018-05-31T05:19:48.436Z,1012.91
2018-05-31T05:20:48.465Z,1012.98
2018-05-31T05:21:48.653Z,1013.09
2018-05-31T05:22:48.993Z,1013.13
2018-05-31T05:23:49.029Z,1013.15
2018-05-31T05:24:49.198Z,1013.18
2018-05-31T05:25:49.230Z,1013.15
2018-05-31T05:26:49.244Z,1013.1
2018-05-31T05:27:49.299Z,1013.12
2018-05-31T05:28:49.752Z,1013.04
2018-05-31T05:29:49.781Z,1013.14
2018-05-31T05:30:50.057Z,1013.14
2018-05-31T05:31:50.482Z,1013.13
2018-05-31T05:32:50.647Z,1013.12
2018-05-31T05:33:51.026Z,1013.14
2018-05-31T05:34:50.975Z,1013.13
2018-05-31T05:35:51.004Z,1013.05
2018-05-31T05:36:51.054Z,1012.99
2018-05-31T05:37:51.090Z,1012.92
2018-05-31T05:38:51.266Z,1012.94
2018-05-31T05:39:51.304Z,1012.94
2018-05-31T05:40:51.341Z,1012.98
2018-05-31T05:41:51.366Z,1012.99
2018-05-31T05:42:51.836Z,1012.97
2018-05-31T05:43:51.849Z,1012.99
2018-05-31T05:44:51.887Z,1012.95
2018-05-31T05:45:51.942Z,1012.96
2018-05-31T05:46:52.208Z,1013.04
2018-05-31T05:47:52.220Z,1013.08
2018-05-31T05:48:52.386Z,1013.18
2018-05-31T05:49:52.545Z,1013.14
2018-05-31T05:50:52.578Z,1013.08
2018-05-31T05:51:52.736Z,1013.04
2018-05-31T05:52:53.635Z,1013.07
2018-05-31T05:53:53.666Z,1013.03
2018-05-31T05:54:53.689Z,1013.06
2018-05-31T05:55:53.730Z,1013.12
2018-05-31T05:56:53.776Z,1013.12
2018-05-31T05:57:54.215Z,1013.11
2018-05-31T05:58:54.277Z,1013.12
2018-05-31T05:59:54.304Z,1013.09
2018-05-31T06:00:54.348Z,1013.11
2018-05-31T06:01:54.840Z,1013.12
2018-05-31T06:02:55.001Z,1013.13
2018-05-31T06:03:55.091Z,1013.14
2018-05-31T06:04:55.137Z,1013.16
2018-05-31T06:05:55.581Z,1013.13
2018-05-31T06:06:55.167Z,1013.14
2018-05-31T06:07:55.197Z,1013.17
2018-05-31T06:08:55.502Z,1013.13
2018-05-31T06:09:55.596Z,1013.15
2018-05-31T06:10:55.578Z,1013.17
2018-05-31T06:11:55.601Z,1013.28
2018-05-31T06:12:55.641Z,1013.35
2018-05-31T06:13:55.687Z,1013.38
2018-05-31T06:14:55.878Z,1013.38
2018-05-31T06:15:55.857Z,1013.38
2018-05-31T06:16:55.882Z,1013.41
2018-05-31T06:17:55.859Z,1013.38
2018-05-31T06:18:55.951Z,1013.36
2018-05-31T06:19:56.016Z,1013.41
2018-05-31T06:20:56.010Z,1013.43
2018-05-31T06:21:56.014Z,1013.42
2018-05-31T06:22:56.298Z,1013.41
2018-05-31T06:23:56.329Z,1013.42
2018-05-31T06:24:56.373Z,1013.46
2018-05-31T06:25:56.405Z,1013.38
2018-05-31T06:26:56.448Z,1013.47
2018-05-31T06:27:56.506Z,1013.45
2018-05-31T06:28:56.535Z,1013.45
2018-05-31T06:29:56.568Z,1013.49
2018-05-31T06:30:56.605Z,1013.42
2018-05-31T06:31:56.643Z,1013.41
2018-05-31T06:32:56.896Z,1013.45
2018-05-31T06:33:57.142Z,1013.43
2018-05-31T06:34:57.411Z,1013.43
2018-05-31T06:35:57.648Z,1013.45
2018-05-31T06:36:57.689Z,1013.47
2018-05-31T06:37:57.740Z,1013.4
2018-05-31T06:38:57.779Z,1013.46
2018-05-31T06:39:57.810Z,1013.47
2018-05-31T06:40:57.850Z,1013.46
2018-05-31T06:41:57.891Z,1013.47
2018-05-31T06:42:57.942Z,1013.43
2018-05-31T06:43:58.001Z,1013.47
2018-05-31T06:44:58.255Z,1013.42
2018-05-31T06:45:58.524Z,1013.47
2018-05-31T06:46:58.728Z,1013.47
2018-05-31T06:47:59.195Z,1013.45
2018-05-31T06:48:59.243Z,1013.43
2018-05-31T06:49:59.285Z,1013.46
2018-05-31T06:50:59.386Z,1013.4
2018-05-31T06:51:59.434Z,1013.4
2018-05-31T06:52:59.462Z,1013.37
2018-05-31T06:53:59.507Z,1013.43
2018-05-31T06:54:59.549Z,1013.42
2018-05-31T06:55:59.592Z,1013.42
2018-05-31T06:56:59.637Z,1013.39
2018-05-31T06:57:59.682Z,1013.4
2018-05-31T06:58:59.916Z,1013.4
2018-05-31T07:00:00.106Z,1013.39
2018-05-31T07:01:00.152Z,1013.42
2018-05-31T07:02:00.193Z,1013.36
2018-05-31T07:03:00.699Z,1013.37
2018-05-31T07:04:01.158Z,1013.34
2018-05-31T07:05:01.337Z,1013.33
2018-05-31T07:06:01.292Z,1013.38
2018-05-31T07:07:01.781Z,1013.37
2018-05-31T07:08:01.818Z,1013.38
2018-05-31T07:09:02.039Z,1013.36
2018-05-31T07:10:02.262Z,1013.39
2018-05-31T07:11:02.647Z,1013.38
2018-05-31T07:12:02.353Z,1013.33
2018-05-31T07:13:02.596Z,1013.35
2018-05-31T07:14:03.090Z,1013.33
2018-05-31T07:15:03.116Z,1013.36
2018-05-31T07:16:03.745Z,1013.35
2018-05-31T07:17:03.739Z,1013.36
2018-05-31T07:18:03.785Z,1013.36
2018-05-31T07:19:03.827Z,1013.4
2018-05-31T07:20:04.282Z,1013.38
2018-05-31T07:21:04.363Z,1013.41
2018-05-31T07:22:04.445Z,1013.46
2018-05-31T07:23:04.525Z,1013.47
2018-05-31T07:24:04.497Z,1013.42
2018-05-31T07:25:04.838Z,1013.45
2018-05-31T07:26:05.166Z,1013.48
2018-05-31T07:27:05.205Z,1013.56
2018-05-31T07:28:05.538Z,1013.61
2018-05-31T07:29:06.011Z,1013.6
2018-05-31T07:30:06.053Z,1013.59
2018-05-31T07:31:06.260Z,1013.56
2018-05-31T07:32:06.715Z,1013.55
2018-05-31T07:33:06.712Z,1013.57
2018-05-31T07:34:06.969Z,1013.53
2018-05-31T07:35:07.446Z,1013.58
2018-05-31T07:36:07.711Z,1013.52
2018-05-31T07:37:07.812Z,1013.46
2018-05-31T07:38:08.207Z,1013.49
2018-05-31T07:39:08.304Z,1013.6
2018-05-31T07:40:08.287Z,1013.7
2018-05-31T07:41:08.337Z,1013.81
2018-05-31T07:42:08.487Z,1013.8
2018-05-31T07:43:08.453Z,1013.7
2018-05-31T07:44:08.463Z,1013.72
2018-05-31T07:45:08.507Z,1013.7
2018-05-31T07:46:08.551Z,1013.7
2018-05-31T07:47:08.930Z,1013.73
2018-05-31T07:48:08.949Z,1013.72
2018-05-31T07:49:09.199Z,1013.69
2018-05-31T07:50:09.226Z,1013.74
2018-05-31T07:51:09.276Z,1013.68
2018-05-31T07:52:09.323Z,1013.69
2018-05-31T07:53:09.618Z,1013.69
2018-05-31T07:54:10.099Z,1013.76
2018-05-31T07:55:10.151Z,1013.7
2018-05-31T07:56:10.521Z,1013.69
2018-05-31T07:57:10.573Z,1013.63
2018-05-31T07:58:10.828Z,1013.66
2018-05-31T07:59:10.738Z,1013.65
2018-05-31T08:00:15.173Z,1013.7
2018-05-31T08:01:15.219Z,1013.66
2018-05-31T08:02:15.275Z,1013.67
2018-05-31T08:03:15.782Z,1013.7
2018-05-31T08:04:15.961Z,1013.69
2018-05-31T08:05:16.012Z,1013.75
2018-05-31T08:06:16.115Z,1013.8
2018-05-31T08:07:16.351Z,1013.74
2018-05-31T08:08:16.387Z,1013.77
2018-05-31T08:09:16.471Z,1013.76
2018-05-31T08:10:16.539Z,1013.74
2018-05-31T08:11:16.534Z,1013.73
2018-05-31T08:12:16.768Z,1013.76
2018-05-31T08:13:16.980Z,1013.8
2018-05-31T08:14:17.025Z,1013.78
2018-05-31T08:15:17.073Z,1013.79
2018-05-31T08:16:17.263Z,1013.84
2018-05-31T08:17:17.456Z,1013.91
2018-05-31T08:18:17.519Z,1013.94
2018-05-31T08:19:17.555Z,1013.96
2018-05-31T08:20:17.605Z,1013.95
2018-05-31T08:21:17.649Z,1013.95
2018-05-31T08:22:17.908Z,1013.94
2018-05-31T08:23:17.890Z,1013.89
2018-05-31T08:24:17.934Z,1013.94
2018-05-31T08:25:18.125Z,1013.94
2018-05-31T08:26:19.231Z,1013.99
2018-05-31T08:27:18.974Z,1013.95
2018-05-31T08:28:19.019Z,1014
2018-05-31T08:29:19.103Z,1013.97
2018-05-31T08:30:19.116Z,1014.01
2018-05-31T08:31:19.164Z,1014.01
2018-05-31T08:32:19.234Z,1014
2018-05-31T08:33:19.287Z,1013.96
2018-05-31T08:34:19.331Z,1013.95
2018-05-31T08:35:19.527Z,1013.94
2018-05-31T08:36:19.589Z,1013.91
2018-05-31T08:37:19.787Z,1013.88
2018-05-31T08:38:19.906Z,1013.86
2018-05-31T08:39:20.264Z,1013.86
2018-05-31T08:40:20.200Z,1013.86
2018-05-31T08:41:20.578Z,1013.85
2018-05-31T08:42:20.663Z,1013.83
2018-05-31T08:43:20.511Z,1013.85
2018-05-31T08:44:20.407Z,1013.86
2018-05-31T08:45:20.447Z,1013.83
2018-05-31T08:46:20.493Z,1013.82
2018-05-31T08:47:20.737Z,1013.8
2018-05-31T08:48:20.802Z,1013.85
2018-05-31T08:49:20.842Z,1013.81
2018-05-31T08:50:20.768Z,1013.85
2018-05-31T08:51:20.818Z,1013.81
2018-05-31T08:52:20.885Z,1013.87
2018-05-31T08:53:21.327Z,1013.95
2018-05-31T08:54:21.487Z,1013.9
2018-05-31T08:55:21.744Z,1013.92
2018-05-31T08:56:21.644Z,1013.97
2018-05-31T08:57:21.645Z,1013.96
2018-05-31T08:58:21.691Z,1014.03
2018-05-31T08:59:21.730Z,1014
2018-05-31T09:00:21.775Z,1013.97
2018-05-31T09:01:21.819Z,1013.95
2018-05-31T09:02:21.921Z,1013.94
2018-05-31T09:03:22.101Z,1013.89
2018-05-31T09:04:21.968Z,1013.94
2018-05-31T09:05:22.250Z,1013.93
2018-05-31T09:06:22.460Z,1013.91
2018-05-31T09:07:22.507Z,1013.89
2018-05-31T09:08:23.011Z,1013.91
2018-05-31T09:09:23.047Z,1013.87
2018-05-31T09:10:23.112Z,1013.96
2018-05-31T09:11:23.151Z,1013.92
2018-05-31T09:12:23.200Z,1013.86
2018-05-31T09:13:23.426Z,1013.92
2018-05-31T09:14:23.900Z,1013.91
2018-05-31T09:15:24.127Z,1013.91
2018-05-31T09:16:24.437Z,1013.94
2018-05-31T09:17:24.496Z,1013.91
2018-05-31T09:18:24.554Z,1013.91
2018-05-31T09:19:24.592Z,1013.89
2018-05-31T09:20:24.837Z,1013.9
2018-05-31T09:21:25.059Z,1013.91
2018-05-31T09:22:25.110Z,1013.84
2018-05-31T09:23:25.170Z,1013.81
2018-05-31T09:24:25.200Z,1013.84
2018-05-31T09:25:25.414Z,1013.85
2018-05-31T09:26:25.732Z,1013.77
2018-05-31T09:27:25.791Z,1013.73
2018-05-31T09:28:25.867Z,1013.81
2018-05-31T09:29:25.973Z,1013.88
2018-05-31T09:30:25.994Z,1013.87
2018-05-31T09:31:25.996Z,1013.82
2018-05-31T09:32:26.263Z,1013.91
2018-05-31T09:33:26.078Z,1013.89
2018-05-31T09:34:26.120Z,1013.88
2018-05-31T09:35:26.163Z,1013.84
2018-05-31T09:36:26.707Z,1013.85
2018-05-31T09:37:26.732Z,1013.86
2018-05-31T09:38:26.778Z,1013.84
2018-05-31T09:39:26.833Z,1013.83
2018-05-31T09:40:27.045Z,1013.85
2018-05-31T09:41:27.099Z,1013.86
2018-05-31T09:42:27.336Z,1013.85
2018-05-31T09:43:27.888Z,1013.91
2018-05-31T09:44:27.940Z,1013.9
2018-05-31T09:45:27.986Z,1013.82
2018-05-31T09:46:28.197Z,1013.81
2018-05-31T09:47:28.247Z,1013.78
2018-05-31T09:48:28.489Z,1013.85
2018-05-31T09:49:28.547Z,1013.77
2018-05-31T09:50:28.584Z,1013.78
2018-05-31T09:51:28.838Z,1013.76
2018-05-31T09:52:29.035Z,1013.76
2018-05-31T09:53:29.495Z,1013.75
2018-05-31T09:54:29.999Z,1013.8
2018-05-31T09:55:30.073Z,1013.7
2018-05-31T09:56:30.141Z,1013.71
2018-05-31T09:57:30.183Z,1013.73
2018-05-31T09:58:30.235Z,1013.79
2018-05-31T09:59:30.273Z,1013.88
2018-05-31T10:00:30.314Z,1013.83
2018-05-31T10:01:30.727Z,1013.9
2018-05-31T10:02:30.883Z,1013.83
2018-05-31T10:03:31.043Z,1013.75
2018-05-31T10:04:31.072Z,1013.75
2018-05-31T10:05:31.132Z,1013.8
2018-05-31T10:06:31.173Z,1013.85
2018-05-31T10:07:31.352Z,1013.78
2018-05-31T10:08:31.390Z,1013.74
2018-05-31T10:09:31.541Z,1013.72
2018-05-31T10:10:31.952Z,1013.74
2018-05-31T10:11:32.002Z,1013.76
2018-05-31T10:12:32.430Z,1013.7
2018-05-31T10:13:32.501Z,1013.74
2018-05-31T10:14:32.689Z,1013.76
2018-05-31T10:15:32.737Z,1013.98
2018-05-31T10:16:32.946Z,1013.85
2018-05-31T10:17:33.034Z,1013.9
2018-05-31T10:18:33.038Z,1013.86
2018-05-31T10:19:33.090Z,1013.91
2018-05-31T10:20:33.268Z,1013.91
2018-05-31T10:21:33.738Z,1014.04
2018-05-31T10:22:33.894Z,1014.08
2018-05-31T10:23:34.227Z,1014.08
2018-05-31T10:24:34.411Z,1013.97
2018-05-31T10:25:34.737Z,1014.01
2018-05-31T10:26:34.943Z,1014.03
2018-05-31T10:27:35.309Z,1014.08
2018-05-31T10:28:35.031Z,1014.11
2018-05-31T10:29:35.473Z,1014.14
2018-05-31T10:30:35.806Z,1014.21
2018-05-31T10:31:35.856Z,1014.25
2018-05-31T10:32:35.899Z,1014.29
2018-05-31T10:33:36.158Z,1014.26
2018-05-31T10:34:36.093Z,1014.24
2018-05-31T10:35:36.156Z,1014.32
2018-05-31T10:36:36.335Z,1013.98
2018-05-31T10:37:36.383Z,1013.29
2018-05-31T10:38:36.391Z,1013.08
2018-05-31T10:39:36.443Z,1013.02
2018-05-31T10:40:36.466Z,1012.92
2018-05-31T10:41:36.534Z,1012.92
2018-05-31T10:42:37.380Z,1012.91
2018-05-31T10:43:37.097Z,1012.92
2018-05-31T10:44:37.339Z,1012.97
2018-05-31T10:45:37.220Z,1012.96
2018-05-31T10:46:37.881Z,1012.94
2018-05-31T10:47:37.731Z,1012.94
2018-05-31T10:48:37.753Z,1012.9
2018-05-31T10:49:37.794Z,1012.84
2018-05-31T10:50:38.232Z,1012.86
2018-05-31T10:51:38.241Z,1012.79
2018-05-31T10:52:38.320Z,1012.8
2018-05-31T10:53:38.436Z,1012.82
2018-05-31T10:54:38.401Z,1012.75
2018-05-31T10:55:38.451Z,1012.79
2018-05-31T10:56:38.712Z,1012.78
2018-05-31T10:57:38.735Z,1012.83
2018-05-31T10:58:38.744Z,1012.85
2018-05-31T10:59:38.805Z,1012.81
2018-05-31T11:00:38.846Z,1012.83
2018-05-31T11:01:38.910Z,1012.89
2018-05-31T11:02:39.332Z,1012.77
2018-05-31T11:03:39.730Z,1012.79
2018-05-31T11:04:40.063Z,1012.85
2018-05-31T11:05:40.621Z,1012.71
2018-05-31T11:06:40.644Z,1012.73
2018-05-31T11:07:40.670Z,1012.72
2018-05-31T11:08:40.747Z,1012.7
2018-05-31T11:09:40.716Z,1012.71
2018-05-31T11:10:40.764Z,1012.77
2018-05-31T11:11:40.788Z,1012.68
2018-05-31T11:12:40.943Z,1012.66
2018-05-31T11:13:41.025Z,1012.72
2018-05-31T11:14:41.164Z,1012.78
2018-05-31T11:15:41.212Z,1012.76
2018-05-31T11:16:41.671Z,1012.79
2018-05-31T11:17:41.618Z,1012.7
2018-05-31T11:18:41.786Z,1012.72
2018-05-31T11:19:41.850Z,1012.7
2018-05-31T11:20:41.884Z,1012.72
2018-05-31T11:21:41.935Z,1012.68
2018-05-31T11:22:41.969Z,1012.66
2018-05-31T11:23:42.374Z,1012.7
2018-05-31T11:24:42.544Z,1012.63
2018-05-31T11:25:42.704Z,1012.69
2018-05-31T11:26:42.998Z,1012.7
2018-05-31T11:27:43.015Z,1012.61
2018-05-31T11:28:43.082Z,1012.6
2018-05-31T11:29:43.114Z,1012.61
2018-05-31T11:30:43.547Z,1012.56
2018-05-31T11:31:43.763Z,1012.57
2018-05-31T11:32:43.784Z,1012.48
2018-05-31T11:33:43.843Z,1012.51
2018-05-31T11:34:44.036Z,1012.52
2018-05-31T11:35:44.024Z,1012.46
2018-05-31T11:36:44.085Z,1012.56
2018-05-31T11:37:44.122Z,1012.54
2018-05-31T11:38:44.249Z,1012.48
2018-05-31T11:39:44.289Z,1012.54
2018-05-31T11:40:44.326Z,1012.45
2018-05-31T11:41:44.374Z,1012.42
2018-05-31T11:42:44.404Z,1012.44
2018-05-31T11:43:44.547Z,1012.42
2018-05-31T11:44:44.599Z,1012.42
2018-05-31T11:45:44.632Z,1012.32
2018-05-31T11:46:44.983Z,1012.37
2018-05-31T11:47:45.014Z,1012.33
2018-05-31T11:48:45.444Z,1012.24
2018-05-31T11:49:45.522Z,1012.31
2018-05-31T11:50:46.177Z,1012.26
2018-05-31T11:51:46.140Z,1012.3
2018-05-31T11:52:46.523Z,1012.25
2018-05-31T11:53:46.549Z,1012.22
2018-05-31T11:54:46.980Z,1012.27
2018-05-31T11:55:47.146Z,1012.29
2018-05-31T11:56:47.552Z,1012.23
2018-05-31T11:57:47.786Z,1012.26
2018-05-31T11:58:47.685Z,1012.25
2018-05-31T11:59:47.676Z,1012.24
2018-05-31T12:00:47.730Z,1012.22
2018-05-31T12:01:47.818Z,1012.28
2018-05-31T12:02:47.849Z,1012.29
2018-05-31T12:03:48.025Z,1012.22
2018-05-31T12:04:47.974Z,1012.25
2018-05-31T12:05:48.215Z,1012.26
2018-05-31T12:06:48.674Z,1012.28
2018-05-31T12:07:48.871Z,1012.29
2018-05-31T12:08:49.136Z,1012.21
2018-05-31T12:09:49.296Z,1012.23